createdAt,value
2022-08-11T00:00:10.247Z,81.96
2022-08-11T00:01:15.120Z,88.88
2022-08-11T00:02:15.129Z,85.69
2022-08-11T00:03:14.720Z,84.70
2022-08-11T00:04:13.452Z,85.39
2022-08-11T00:05:15.154Z,84.51
2022-08-11T00:06:14.651Z,83.54
2022-08-11T00:07:11.941Z,84.53
2022-08-11T00:08:11.423Z,97.05
2022-08-11T00:09:11.721Z,100.00
2022-08-11T00:10:22.176Z,94.70
2022-08-11T00:11:21.282Z,91.57
2022-08-11T00:12:18.394Z,88.45
2022-08-11T00:13:16.809Z,86.65
2022-08-11T00:14:36.737Z,87.49
2022-08-11T00:15:42.962Z,85.68
2022-08-11T00:16:42.152Z,86.64
2022-08-11T00:17:39.847Z,85.02
2022-08-11T00:18:47.104Z,86.67
2022-08-11T00:20:12.863Z,85.65
2022-08-11T00:21:04.272Z,84.64
2022-08-11T00:22:06.185Z,84.03
2022-08-11T00:23:17.441Z,84.18
2022-08-11T00:24:17.267Z,86.46
2022-08-11T00:25:22.122Z,86.48
2022-08-11T00:26:20.487Z,87.86
2022-08-11T00:27:17.512Z,88.40
2022-08-11T00:28:43.476Z,89.12
2022-08-11T00:29:51.854Z,88.60
2022-08-11T00:30:52.033Z,87.76
2022-08-11T00:31:55.040Z,85.57
2022-08-11T00:33:00.798Z,84.04
2022-08-11T00:34:00.493Z,85.43
2022-08-11T00:35:51.760Z,84.33
2022-08-11T00:36:24.875Z,84.75
2022-08-11T00:37:24.186Z,83.63
2022-08-11T00:38:26.163Z,83.26
2022-08-11T00:39:28.624Z,82.75
2022-08-11T00:40:58.792Z,84.15
2022-08-11T00:41:58.260Z,84.12
2022-08-11T00:43:20.517Z,85.08
2022-08-11T00:44:36.171Z,86.64
2022-08-11T00:45:43.227Z,85.50
2022-08-11T00:47:13.622Z,83.35
2022-08-11T00:48:33.561Z,82.52
2022-08-11T00:49:42.106Z,85.26
2022-08-11T00:51:10.891Z,83.46
2022-08-11T00:52:50.716Z,82.27
2022-08-11T00:54:17.305Z,81.80
2022-08-11T00:55:39.216Z,82.98
2022-08-11T00:57:37.219Z,85.53
2022-08-11T00:58:36.250Z,97.19
2022-08-11T00:59:48.446Z,90.65
2022-08-11T01:01:16.121Z,90.58
2022-08-11T01:02:39.537Z,85.42
2022-08-11T01:04:30.279Z,87.17
2022-08-11T01:05:38.837Z,84.20
2022-08-11T01:06:50.264Z,83.13
2022-08-11T01:08:21.028Z,83.47
2022-08-11T01:09:36.068Z,82.93
2022-08-11T01:11:09.859Z,83.32
2022-08-11T01:12:32.618Z,84.46
2022-08-11T01:13:38.350Z,85.33
2022-08-11T01:14:40.730Z,87.49
2022-08-11T01:15:37.870Z,92.33
2022-08-11T01:17:04.062Z,88.74
2022-08-11T01:18:31.339Z,90.03
2022-08-11T01:20:46.240Z,100.00
2022-08-11T01:22:00.541Z,100.00
2022-08-11T01:23:33.752Z,100.00
2022-08-11T01:24:55.023Z,93.81
2022-08-11T01:25:57.567Z,91.85
2022-08-11T01:26:57.628Z,91.36
2022-08-11T01:28:03.209Z,100.00
2022-08-11T01:29:18.240Z,96.32
2022-08-11T01:30:47.136Z,95.33
2022-08-11T01:32:14.956Z,91.05
2022-08-11T01:33:34.625Z,98.59
2022-08-11T01:35:08.873Z,89.87
2022-08-11T01:36:34.586Z,85.95
2022-08-11T01:38:21.969Z,91.03
2022-08-11T01:39:52.776Z,100.00
2022-08-11T01:41:15.531Z,98.21
2022-08-11T01:42:49.429Z,95.71
2022-08-11T01:44:38.572Z,92.90
2022-08-11T01:45:46.410Z,88.38
2022-08-11T01:46:58.044Z,86.38
2022-08-11T01:48:41.439Z,87.82
2022-08-11T01:50:09.574Z,88.84
2022-08-11T01:51:58.471Z,88.64
2022-08-11T01:53:25.995Z,88.04
2022-08-11T01:54:52.601Z,87.27
2022-08-11T01:56:15.405Z,85.33
2022-08-11T01:57:42.246Z,87.12
2022-08-11T01:58:49.191Z,86.80
2022-08-11T01:59:51.908Z,85.09
2022-08-11T02:01:05.933Z,84.54
2022-08-11T02:02:41.904Z,84.54
2022-08-11T02:03:55.285Z,85.97
2022-08-11T02:05:22.978Z,85.85
2022-08-11T02:06:50.196Z,85.34
2022-08-11T02:08:00.366Z,84.61
2022-08-11T02:09:05.618Z,83.89
2022-08-11T02:10:42.463Z,83.91
2022-08-11T02:11:56.380Z,92.72
2022-08-11T02:13:20.791Z,96.56
2022-08-11T02:15:11.093Z,88.24
2022-08-11T02:16:13.751Z,87.80
2022-08-11T02:17:22.995Z,89.23
2022-08-11T02:18:55.243Z,89.08
2022-08-11T02:20:24.147Z,89.27
2022-08-11T02:22:17.967Z,99.70
2022-08-11T02:24:03.868Z,96.28
2022-08-11T02:25:04.839Z,100.00
2022-08-11T02:26:09.731Z,99.16
2022-08-11T02:27:23.426Z,94.25
2022-08-11T02:28:45.071Z,89.93
2022-08-11T02:29:46.368Z,95.60
2022-08-11T02:32:15.632Z,98.55
2022-08-11T02:33:14.427Z,100.00
2022-08-11T02:34:31.332Z,100.00
2022-08-11T02:35:42.925Z,94.85
2022-08-11T02:37:24.428Z,93.90
2022-08-11T02:38:32.406Z,94.32
2022-08-11T02:39:43.006Z,100.00
2022-08-11T02:40:50.443Z,96.69
2022-08-11T02:42:32.892Z,97.69
2022-08-11T02:44:06.691Z,97.06
2022-08-11T02:45:12.408Z,98.55
2022-08-11T02:46:24.673Z,92.57
2022-08-11T02:48:21.837Z,100.00
2022-08-11T02:50:02.540Z,98.68
2022-08-11T02:51:30.449Z,94.85
2022-08-11T02:52:32.900Z,100.00
2022-08-11T02:53:56.501Z,97.18
2022-08-11T02:55:47.973Z,98.71
2022-08-11T02:57:01.123Z,93.07
2022-08-11T02:58:10.198Z,100.00
2022-08-11T02:59:41.504Z,99.88
2022-08-11T03:01:13.565Z,100.00
2022-08-11T03:02:31.405Z,100.00
2022-08-11T03:03:47.770Z,100.00
2022-08-11T03:05:11.927Z,100.00
2022-08-11T03:06:31.486Z,100.00
2022-08-11T03:07:39.971Z,100.00
2022-08-11T03:08:52.546Z,100.00
2022-08-11T03:10:20.145Z,96.72
2022-08-11T03:12:06.882Z,94.51
2022-08-11T03:13:52.519Z,91.43
2022-08-11T03:15:10.768Z,89.85
2022-08-11T03:16:37.278Z,87.82
2022-08-11T03:17:52.963Z,87.18
2022-08-11T03:19:04.195Z,86.72
2022-08-11T03:20:15.665Z,85.43
2022-08-11T03:21:24.345Z,97.12
2022-08-11T03:23:02.605Z,88.21
2022-08-11T03:24:11.045Z,86.50
2022-08-11T03:25:31.848Z,84.79
2022-08-11T03:26:56.311Z,83.57
2022-08-11T03:28:04.404Z,83.39
2022-08-11T03:29:25.948Z,83.36
2022-08-11T03:30:39.902Z,84.04
2022-08-11T03:31:58.543Z,83.58
2022-08-11T03:33:42.708Z,82.88
2022-08-11T03:34:45.578Z,84.30
2022-08-11T03:35:59.376Z,83.23
2022-08-11T03:37:45.811Z,83.64
2022-08-11T03:39:09.149Z,82.25
2022-08-11T03:40:56.501Z,83.64
2022-08-11T03:42:20.941Z,83.52
2022-08-11T03:43:26.833Z,88.55
2022-08-11T03:44:37.920Z,94.54
2022-08-11T03:45:43.119Z,93.57
2022-08-11T03:47:00.697Z,90.31
2022-08-11T03:48:07.084Z,93.20
2022-08-11T03:49:23.957Z,93.66
2022-08-11T03:51:05.071Z,94.69
2022-08-11T03:52:22.247Z,90.81
2022-08-11T03:53:28.285Z,100.00
2022-08-11T03:55:10.868Z,94.16
2022-08-11T03:56:16.879Z,92.35
2022-08-11T03:57:37.777Z,87.89
2022-08-11T03:59:17.232Z,86.32
2022-08-11T04:00:25.838Z,86.61
2022-08-11T04:01:53.203Z,85.64
2022-08-11T04:03:17.011Z,86.76
2022-08-11T04:04:51.801Z,86.99
2022-08-11T04:06:09.245Z,87.34
2022-08-11T04:07:17.520Z,85.97
2022-08-11T04:08:34.303Z,83.80
2022-08-11T04:10:07.367Z,82.91
2022-08-11T04:11:22.656Z,82.28
2022-08-11T04:12:38.014Z,81.65
2022-08-11T04:14:29.108Z,90.84
2022-08-11T04:16:00.911Z,100.00
2022-08-11T04:17:41.099Z,100.00
2022-08-11T04:19:13.048Z,96.22
2022-08-11T04:20:31.234Z,100.00
2022-08-11T04:21:49.406Z,100.00
2022-08-11T04:24:35.438Z,100.00
2022-08-11T04:25:11.860Z,100.00
2022-08-11T04:26:20.271Z,100.00
2022-08-11T04:27:20.264Z,99.27
2022-08-11T04:28:35.127Z,96.20
2022-08-11T04:30:05.474Z,94.63
2022-08-11T04:31:51.877Z,89.31
2022-08-11T04:32:49.602Z,85.98
2022-08-11T04:34:14.412Z,88.85
2022-08-11T04:35:33.004Z,86.03
2022-08-11T04:37:00.233Z,86.08
2022-08-11T04:38:15.662Z,86.49
2022-08-11T04:39:46.598Z,85.77
2022-08-11T04:41:15.202Z,82.67
2022-08-11T04:42:49.542Z,87.09
2022-08-11T04:44:14.128Z,100.00
2022-08-11T04:45:35.496Z,92.35
2022-08-11T04:46:59.537Z,100.00
2022-08-11T04:48:44.805Z,100.00
2022-08-11T04:50:15.076Z,100.00
2022-08-11T04:51:58.506Z,100.00
2022-08-11T04:53:55.776Z,100.00
2022-08-11T04:55:37.736Z,100.00
2022-08-11T04:56:58.858Z,100.00
2022-08-11T04:58:31.765Z,100.00
2022-08-11T05:00:22.477Z,88.33
2022-08-11T05:01:43.987Z,97.27
2022-08-11T05:03:08.472Z,96.41
2022-08-11T05:04:41.841Z,98.13
2022-08-11T05:06:10.553Z,100.00
2022-08-11T05:07:22.156Z,95.98
2022-08-11T05:08:27.577Z,94.37
2022-08-11T05:09:37.501Z,90.62
2022-08-11T05:10:52.214Z,88.71
2022-08-11T05:12:16.414Z,100.00
2022-08-11T05:13:49.207Z,100.00
2022-08-11T05:15:12.472Z,96.37
2022-08-11T05:16:32.039Z,100.00
2022-08-11T05:17:55.940Z,100.00
2022-08-11T05:19:16.337Z,100.00
2022-08-11T05:20:33.357Z,99.06
2022-08-11T05:21:53.747Z,100.00
2022-08-11T05:23:23.888Z,100.00
2022-08-11T05:24:43.234Z,100.00
2022-08-11T05:26:43.909Z,100.00
2022-08-11T05:27:51.666Z,100.00
2022-08-11T05:29:21.264Z,100.00
2022-08-11T05:30:37.531Z,100.00
2022-08-11T05:31:56.701Z,97.18
2022-08-11T05:33:21.983Z,96.13
2022-08-11T05:34:45.976Z,100.00
2022-08-11T05:36:01.915Z,100.00
2022-08-11T05:37:25.658Z,100.00
2022-08-11T05:38:45.746Z,100.00
2022-08-11T05:40:08.859Z,100.00
2022-08-11T05:41:27.271Z,100.00
2022-08-11T05:42:45.064Z,100.00
2022-08-11T05:44:19.618Z,97.50
2022-08-11T05:45:57.263Z,100.00
2022-08-11T05:47:14.488Z,96.44
2022-08-11T05:48:31.526Z,91.53
2022-08-11T05:49:50.772Z,94.46
2022-08-11T05:51:11.565Z,100.00
2022-08-11T05:52:41.610Z,97.02
2022-08-11T05:54:27.928Z,100.00
2022-08-11T05:56:01.923Z,100.00
2022-08-11T05:57:03.489Z,94.44
2022-08-11T05:58:07.495Z,100.00
2022-08-11T05:59:05.215Z,100.00
2022-08-11T06:00:10.400Z,100.00
2022-08-11T06:01:08.274Z,100.00
2022-08-11T06:02:08.749Z,100.00
2022-08-11T06:03:07.548Z,98.70
2022-08-11T06:04:16.727Z,94.90
2022-08-11T06:05:14.360Z,90.50
2022-08-11T06:07:48.867Z,91.52
2022-08-11T06:08:47.982Z,100.00
2022-08-11T06:09:44.638Z,100.00
2022-08-11T06:10:44.761Z,100.00
2022-08-11T06:11:44.981Z,100.00
2022-08-11T06:12:43.599Z,100.00
2022-08-11T06:13:47.888Z,100.00
2022-08-11T06:14:46.333Z,100.00
2022-08-11T06:15:52.987Z,100.00
2022-08-11T06:17:01.887Z,100.00
2022-08-11T06:18:01.432Z,98.79
2022-08-11T06:18:59.624Z,100.00
2022-08-11T06:20:07.090Z,100.00
2022-08-11T06:21:11.221Z,100.00
2022-08-11T06:22:12.463Z,100.00
2022-08-11T06:23:10.899Z,100.00
2022-08-11T06:24:14.786Z,100.00
2022-08-11T06:25:16.073Z,100.00
2022-08-11T06:26:15.496Z,100.00
2022-08-11T06:27:25.043Z,100.00
2022-08-11T06:28:32.714Z,100.00
2022-08-11T06:29:37.966Z,100.00
2022-08-11T06:30:47.063Z,100.00
2022-08-11T06:31:55.726Z,100.00
2022-08-11T06:32:55.482Z,100.00
2022-08-11T06:34:28.521Z,100.00
2022-08-11T06:35:56.391Z,100.00
2022-08-11T06:37:07.200Z,100.00
2022-08-11T06:38:16.165Z,97.67
2022-08-11T06:39:31.834Z,92.26
2022-08-11T06:41:09.045Z,100.00
2022-08-11T06:42:14.200Z,100.00
2022-08-11T06:43:30.734Z,100.00
2022-08-11T06:45:16.938Z,100.00
2022-08-11T06:46:24.772Z,95.63
2022-08-11T06:47:28.093Z,99.58
2022-08-11T06:48:26.241Z,98.81
2022-08-11T06:49:52.893Z,100.00
2022-08-11T06:51:14.518Z,100.00
2022-08-11T06:52:34.333Z,100.00
2022-08-11T06:53:34.885Z,100.00
2022-08-11T06:54:41.451Z,100.00
2022-08-11T06:56:03.478Z,100.00
2022-08-11T06:57:30.848Z,100.00
2022-08-11T06:59:17.312Z,100.00
2022-08-11T07:00:30.402Z,100.00
2022-08-11T07:01:48.576Z,99.59
2022-08-11T07:02:56.198Z,100.00
2022-08-11T07:04:09.150Z,97.55
2022-08-11T07:05:20.109Z,100.00
2022-08-11T07:06:41.593Z,100.00
2022-08-11T07:08:33.827Z,96.95
2022-08-11T07:10:16.878Z,95.49
2022-08-11T07:12:07.630Z,97.64
2022-08-11T07:13:44.416Z,95.63
2022-08-11T07:15:10.106Z,90.01
2022-08-11T07:16:13.122Z,87.73
2022-08-11T07:17:17.451Z,90.31
2022-08-11T07:18:44.904Z,87.43
2022-08-11T07:20:06.075Z,87.79
2022-08-11T07:22:02.495Z,93.08
2022-08-11T07:23:22.871Z,88.65
2022-08-11T07:24:59.853Z,92.12
2022-08-11T07:26:23.027Z,92.78
2022-08-11T07:27:43.445Z,95.58
2022-08-11T07:28:56.640Z,90.71
2022-08-11T07:29:57.988Z,87.68
2022-08-11T07:31:03.482Z,84.02
2022-08-11T07:32:14.467Z,91.34
2022-08-11T07:34:07.191Z,95.38
2022-08-11T07:34:45.780Z,89.50
2022-08-11T07:35:49.699Z,85.39
2022-08-11T07:36:52.362Z,87.46
2022-08-11T07:38:02.239Z,82.45
2022-08-11T07:39:01.592Z,80.25
2022-08-11T07:40:00.767Z,78.65
2022-08-11T07:40:59.990Z,77.01
2022-08-11T07:41:59.112Z,79.52
2022-08-11T07:42:59.681Z,81.93
2022-08-11T07:44:09.010Z,78.34
2022-08-11T07:45:26.572Z,79.86
2022-08-11T07:46:42.794Z,81.74
2022-08-11T07:47:59.627Z,76.10
2022-08-11T07:49:16.473Z,74.19
2022-08-11T07:50:32.830Z,76.19
2022-08-11T07:51:48.247Z,79.87
2022-08-11T07:52:47.305Z,76.55
2022-08-11T07:53:58.541Z,73.55
2022-08-11T07:55:08.446Z,72.99
2022-08-11T07:56:08.321Z,71.80
2022-08-11T07:58:04.419Z,70.25
2022-08-11T07:59:08.444Z,71.32
2022-08-11T08:00:25.755Z,75.05
2022-08-11T08:01:48.680Z,77.11
2022-08-11T08:03:04.993Z,78.22
2022-08-11T08:04:20.867Z,76.93
2022-08-11T08:05:38.309Z,76.22
2022-08-11T08:06:56.136Z,80.18
2022-08-11T08:08:11.373Z,79.35
2022-08-11T08:09:30.374Z,78.17
2022-08-11T08:10:47.641Z,76.57
2022-08-11T08:12:04.910Z,74.25
2022-08-11T08:13:20.889Z,75.03
2022-08-11T08:14:36.605Z,73.64
2022-08-11T08:15:52.328Z,73.93
2022-08-11T08:17:08.162Z,72.12
2022-08-11T08:18:09.567Z,76.05
2022-08-11T08:19:25.107Z,75.37
2022-08-11T08:20:26.978Z,72.97
2022-08-11T08:21:24.238Z,73.49
2022-08-11T08:22:38.217Z,75.39
2022-08-11T08:23:37.396Z,73.55
2022-08-11T08:24:34.950Z,72.28
2022-08-11T08:25:39.347Z,72.87
2022-08-11T08:26:56.378Z,75.32
2022-08-11T08:27:56.445Z,76.73
2022-08-11T08:29:16.005Z,74.16
2022-08-11T08:30:32.677Z,73.90
2022-08-11T08:31:29.611Z,75.15
2022-08-11T08:32:28.350Z,71.90
2022-08-11T08:33:31.296Z,70.00
2022-08-11T08:34:28.872Z,69.30
2022-08-11T08:35:32.941Z,71.34
2022-08-11T08:36:30.434Z,71.73
2022-08-11T08:37:46.009Z,70.32
2022-08-11T08:38:50.165Z,67.77
2022-08-11T08:39:48.360Z,70.97
2022-08-11T08:40:46.890Z,73.15
2022-08-11T08:41:45.791Z,72.99
2022-08-11T08:42:51.698Z,72.52
2022-08-11T08:43:53.676Z,72.68
2022-08-11T08:45:06.464Z,73.51
2022-08-11T08:46:09.975Z,73.91
2022-08-11T08:47:10.676Z,75.47
2022-08-11T08:48:14.725Z,71.77
2022-08-11T08:49:19.514Z,71.99
2022-08-11T08:50:21.651Z,72.96
2022-08-11T08:52:01.070Z,74.00
2022-08-11T08:53:06.416Z,75.14
2022-08-11T08:54:28.602Z,76.17
2022-08-11T08:55:29.458Z,74.41
2022-08-11T08:56:29.018Z,75.20
2022-08-11T08:57:39.586Z,74.42
2022-08-11T08:58:40.714Z,70.06
2022-08-11T08:59:48.466Z,69.73
2022-08-11T09:00:52.959Z,67.03
2022-08-11T09:01:57.611Z,68.02
2022-08-11T09:02:55.313Z,70.79
2022-08-11T09:04:04.807Z,70.97
2022-08-11T09:05:09.117Z,69.97
2022-08-11T09:06:06.896Z,71.17
2022-08-11T09:07:11.746Z,68.20
2022-08-11T09:08:11.870Z,64.50
2022-08-11T09:09:12.388Z,66.34
2022-08-11T09:10:11.492Z,66.23
2022-08-11T09:11:30.891Z,64.90
2022-08-11T09:12:38.595Z,63.69
2022-08-11T09:13:36.998Z,65.02
2022-08-11T09:14:55.805Z,65.63
2022-08-11T09:15:56.299Z,65.54
2022-08-11T09:16:54.484Z,67.94
2022-08-11T09:18:06.155Z,67.83
2022-08-11T09:19:04.353Z,65.69
2022-08-11T09:20:09.633Z,64.77
2022-08-11T09:21:08.066Z,66.62
2022-08-11T09:22:24.518Z,68.86
2022-08-11T09:25:16.858Z,65.42
2022-08-11T09:26:34.422Z,65.40
2022-08-11T09:27:33.128Z,65.54
2022-08-11T09:28:31.511Z,68.30
2022-08-11T09:29:33.078Z,69.45
2022-08-11T09:30:30.190Z,68.28
2022-08-11T09:31:38.703Z,68.62
2022-08-11T09:32:40.435Z,69.01
2022-08-11T09:33:38.425Z,69.98
2022-08-11T09:34:39.653Z,68.60
2022-08-11T09:35:38.768Z,67.86
2022-08-11T09:36:54.474Z,68.53
2022-08-11T09:38:10.482Z,69.17
2022-08-11T09:39:27.749Z,68.05
2022-08-11T09:40:29.495Z,67.20
2022-08-11T09:41:26.502Z,67.46
2022-08-11T09:43:03.623Z,65.68
2022-08-11T09:44:21.082Z,62.53
2022-08-11T09:45:19.282Z,62.18
2022-08-11T09:46:23.546Z,64.09
2022-08-11T09:47:24.713Z,63.62
2022-08-11T09:48:24.902Z,65.80
2022-08-11T09:49:22.624Z,66.70
2022-08-11T09:50:20.520Z,66.53
2022-08-11T09:51:22.824Z,66.19
2022-08-11T09:52:22.841Z,65.87
2022-08-11T09:53:37.365Z,64.86
2022-08-11T09:54:38.329Z,65.22
2022-08-11T09:55:35.660Z,62.59
2022-08-11T09:56:52.755Z,64.16
2022-08-11T09:58:07.982Z,65.66
2022-08-11T09:59:06.255Z,65.08
2022-08-11T10:00:12.372Z,67.05
2022-08-11T10:01:27.308Z,66.05
2022-08-11T10:02:30.284Z,67.10
2022-08-11T10:03:30.214Z,66.63
2022-08-11T10:04:47.621Z,65.95
2022-08-11T10:06:08.203Z,66.47
2022-08-11T10:07:09.736Z,67.50
2022-08-11T10:08:12.510Z,66.18
2022-08-11T10:09:12.071Z,65.06
2022-08-11T10:10:11.032Z,65.83
2022-08-11T10:11:14.079Z,65.83
2022-08-11T10:12:25.072Z,64.02
2022-08-11T10:14:09.288Z,64.50
2022-08-11T10:15:11.444Z,64.57
2022-08-11T10:16:15.551Z,64.55
2022-08-11T10:17:16.905Z,62.86
2022-08-11T10:18:42.285Z,62.99
2022-08-11T10:19:42.298Z,62.76
2022-08-11T10:20:41.217Z,61.91
2022-08-11T10:21:43.883Z,62.59
2022-08-11T10:23:01.420Z,62.65
2022-08-11T10:24:19.300Z,62.26
2022-08-11T10:25:35.616Z,60.64
2022-08-11T10:26:53.560Z,60.48
2022-08-11T10:28:28.775Z,58.22
2022-08-11T10:29:37.597Z,58.40
2022-08-11T10:31:00.085Z,60.96
2022-08-11T10:32:17.492Z,58.77
2022-08-11T10:33:42.842Z,58.18
2022-08-11T10:34:49.642Z,58.76
2022-08-11T10:35:52.206Z,60.38
2022-08-11T10:36:49.571Z,59.19
2022-08-11T10:38:08.523Z,60.08
2022-08-11T10:39:06.793Z,59.51
2022-08-11T10:40:06.975Z,59.83
2022-08-11T10:41:25.397Z,60.98
2022-08-11T10:42:57.369Z,59.18
2022-08-11T10:44:02.655Z,59.82
2022-08-11T10:45:04.098Z,60.20
2022-08-11T10:46:29.980Z,58.24
2022-08-11T10:47:38.382Z,57.89
2022-08-11T10:48:46.756Z,56.03
2022-08-11T10:49:44.037Z,57.19
2022-08-11T10:51:05.628Z,58.32
2022-08-11T10:52:21.881Z,58.39
2022-08-11T10:53:39.255Z,58.75
2022-08-11T10:54:55.978Z,59.35
2022-08-11T10:56:13.260Z,59.58
2022-08-11T10:57:30.674Z,58.55
2022-08-11T10:58:47.075Z,59.08
2022-08-11T10:59:47.211Z,57.40
2022-08-11T11:00:45.540Z,58.99
2022-08-11T11:01:45.183Z,57.73
2022-08-11T11:02:44.795Z,58.06
2022-08-11T11:04:07.990Z,57.74
2022-08-11T11:05:16.637Z,58.32
2022-08-11T11:06:32.055Z,56.39
2022-08-11T11:07:44.210Z,56.34
2022-08-11T11:08:53.364Z,56.88
2022-08-11T11:09:56.149Z,59.37
2022-08-11T11:10:53.874Z,59.21
2022-08-11T11:12:17.407Z,58.63
2022-08-11T11:13:33.264Z,58.07
2022-08-11T11:14:56.457Z,56.20
2022-08-11T11:16:14.165Z,57.06
2022-08-11T11:17:14.229Z,55.24
2022-08-11T11:18:19.747Z,55.21
2022-08-11T11:19:23.973Z,55.59
2022-08-11T11:20:35.791Z,56.38
2022-08-11T11:21:38.901Z,56.39
2022-08-11T11:22:42.461Z,55.97
2022-08-11T11:24:14.455Z,55.71
2022-08-11T11:25:21.795Z,56.52
2022-08-11T11:26:39.691Z,56.46
2022-08-11T11:27:50.242Z,57.02
2022-08-11T11:28:58.772Z,57.63
2022-08-11T11:30:08.680Z,56.82
2022-08-11T11:31:22.342Z,58.27
2022-08-11T11:32:35.313Z,57.13
2022-08-11T11:34:12.692Z,57.04
2022-08-11T11:35:15.768Z,55.71
2022-08-11T11:36:51.781Z,55.32
2022-08-11T11:38:03.866Z,56.23
2022-08-11T11:39:02.864Z,55.26
2022-08-11T11:40:01.127Z,55.97
2022-08-11T11:41:17.884Z,56.21
2022-08-11T11:42:16.794Z,54.87
2022-08-11T11:43:13.801Z,54.97
2022-08-11T11:44:14.407Z,53.95
2022-08-11T11:45:23.363Z,54.74
2022-08-11T11:46:25.964Z,54.67
2022-08-11T11:47:26.765Z,54.47
2022-08-11T11:48:28.630Z,54.46
2022-08-11T11:49:29.661Z,53.54
2022-08-11T11:50:31.557Z,53.83
2022-08-11T11:51:30.472Z,52.90
2022-08-11T11:52:28.737Z,53.46
2022-08-11T11:53:26.350Z,54.73
2022-08-11T11:54:30.067Z,53.89
2022-08-11T11:55:29.713Z,52.49
2022-08-11T11:56:26.866Z,53.66
2022-08-11T11:57:59.212Z,54.23
2022-08-11T11:59:18.884Z,54.83
2022-08-11T12:00:34.683Z,54.36
2022-08-11T12:01:34.037Z,54.69
2022-08-11T12:02:31.367Z,54.91
2022-08-11T12:03:29.216Z,54.92
2022-08-11T12:04:28.095Z,54.47
2022-08-11T12:05:26.609Z,53.53
2022-08-11T12:06:25.507Z,53.68
2022-08-11T12:07:42.686Z,53.07
2022-08-11T12:08:41.170Z,53.46
2022-08-11T12:09:40.021Z,53.88
2022-08-11T12:10:37.462Z,52.84
2022-08-11T12:11:53.366Z,51.73
2022-08-11T12:13:10.059Z,52.70
2022-08-11T12:14:10.333Z,51.51
2022-08-11T12:15:09.398Z,51.95
2022-08-11T12:16:34.074Z,51.23
2022-08-11T12:17:26.387Z,50.20
2022-08-11T12:18:24.119Z,50.89
2022-08-11T12:19:25.696Z,50.33
2022-08-11T12:20:33.158Z,49.82
2022-08-11T12:21:32.526Z,49.54
2022-08-11T12:22:49.007Z,51.01
2022-08-11T12:24:07.849Z,50.42
2022-08-11T12:25:25.018Z,50.23
2022-08-11T12:26:42.259Z,50.13
2022-08-11T12:27:40.655Z,48.65
2022-08-11T12:28:40.117Z,49.85
2022-08-11T12:29:41.166Z,48.98
2022-08-11T12:31:44.960Z,50.10
2022-08-11T12:32:44.318Z,50.41
2022-08-11T12:33:43.881Z,53.07
2022-08-11T12:34:41.067Z,53.55
2022-08-11T12:35:38.458Z,54.75
2022-08-11T12:36:41.732Z,54.01
2022-08-11T12:37:43.717Z,55.07
2022-08-11T12:38:40.751Z,55.17
2022-08-11T12:40:10.781Z,55.49
2022-08-11T12:41:34.001Z,56.60
2022-08-11T12:42:56.432Z,56.86
2022-08-11T12:44:12.716Z,56.82
2022-08-11T12:45:29.101Z,56.13
2022-08-11T12:46:32.861Z,56.93
2022-08-11T12:48:14.008Z,59.37
2022-08-11T12:49:43.221Z,59.86
2022-08-11T12:51:02.393Z,61.07
2022-08-11T12:52:17.240Z,61.23
2022-08-11T12:53:14.714Z,62.09
2022-08-11T12:54:11.450Z,62.83
2022-08-11T12:55:34.712Z,64.14
2022-08-11T12:56:58.270Z,64.27
2022-08-11T12:58:13.818Z,63.03
2022-08-11T12:59:30.036Z,63.02
2022-08-11T13:00:48.723Z,62.51
2022-08-11T13:02:05.015Z,61.67
2022-08-11T13:03:24.164Z,59.63
2022-08-11T13:04:39.905Z,58.49
2022-08-11T13:05:44.690Z,58.82
2022-08-11T13:06:43.239Z,59.65
2022-08-11T13:07:50.933Z,62.57
2022-08-11T13:08:49.703Z,62.80
2022-08-11T13:09:47.377Z,64.00
2022-08-11T13:11:05.472Z,64.04
2022-08-11T13:12:21.095Z,64.93
2022-08-11T13:13:54.066Z,63.65
2022-08-11T13:14:37.934Z,64.30
2022-08-11T13:15:39.148Z,63.73
2022-08-11T13:16:57.070Z,63.78
2022-08-11T13:17:55.865Z,64.19
2022-08-11T13:18:53.921Z,64.95
2022-08-11T13:19:53.415Z,64.39
2022-08-11T13:20:54.358Z,64.62
2022-08-11T13:21:54.446Z,64.83
2022-08-11T13:22:55.560Z,65.79
2022-08-11T13:24:01.886Z,64.81
2022-08-11T13:24:59.901Z,64.08
2022-08-11T13:25:58.039Z,63.25
2022-08-11T13:26:56.291Z,62.43
2022-08-11T13:28:01.182Z,61.15
2022-08-11T13:28:58.838Z,60.78
2022-08-11T13:30:16.348Z,60.18
2022-08-11T13:31:15.155Z,60.24
2022-08-11T13:32:12.324Z,59.41
2022-08-11T13:33:11.108Z,59.42
2022-08-11T13:34:09.040Z,59.88
2022-08-11T13:35:08.370Z,60.26
2022-08-11T13:36:06.635Z,59.81
2022-08-11T13:37:05.574Z,59.41
2022-08-11T13:38:18.949Z,59.34
2022-08-11T13:39:25.914Z,58.90
2022-08-11T13:40:33.158Z,59.08
2022-08-11T13:41:45.275Z,58.90
2022-08-11T13:42:44.184Z,57.51
2022-08-11T13:43:45.620Z,57.43
2022-08-11T13:44:44.339Z,56.42
2022-08-11T13:45:44.017Z,55.96
2022-08-11T13:46:44.455Z,55.68
2022-08-11T13:47:43.395Z,55.07
2022-08-11T13:48:42.330Z,54.80
2022-08-11T13:49:41.830Z,55.06
2022-08-11T13:50:58.262Z,53.61
2022-08-11T13:51:56.928Z,54.42
2022-08-11T13:52:53.835Z,54.29
2022-08-11T13:53:52.243Z,53.65
2022-08-11T13:54:56.107Z,54.78
2022-08-11T13:55:55.009Z,54.74
2022-08-11T13:56:56.341Z,54.94
2022-08-11T13:58:08.876Z,54.42
2022-08-11T13:59:14.380Z,54.05
2022-08-11T14:00:12.900Z,53.46
2022-08-11T14:02:19.143Z,54.30
2022-08-11T14:02:30.770Z,53.59
2022-08-11T14:04:29.049Z,53.58
2022-08-11T14:04:59.363Z,52.04
2022-08-11T14:06:03.130Z,52.18
2022-08-11T14:07:06.613Z,51.25
2022-08-11T14:08:09.634Z,51.01
2022-08-11T14:09:37.178Z,51.02
2022-08-11T14:10:38.566Z,51.71
2022-08-11T14:12:22.402Z,50.86
2022-08-11T14:13:41.274Z,51.81
2022-08-11T14:14:39.872Z,51.32
2022-08-11T14:15:42.030Z,51.97
2022-08-11T14:16:43.168Z,51.41
2022-08-11T14:17:48.715Z,51.10
2022-08-11T14:18:51.608Z,52.20
2022-08-11T14:19:53.503Z,52.89
2022-08-11T14:21:15.055Z,52.56
2022-08-11T14:22:16.316Z,52.40
2022-08-11T14:23:16.144Z,52.82
2022-08-11T14:24:16.538Z,52.40
2022-08-11T14:25:18.259Z,52.76
2022-08-11T14:26:23.906Z,52.79
2022-08-11T14:28:30.078Z,53.39
2022-08-11T14:28:44.934Z,53.71
2022-08-11T14:29:48.736Z,53.52
2022-08-11T14:31:00.458Z,52.98
2022-08-11T14:32:04.090Z,53.58
2022-08-11T14:33:01.979Z,53.04
2022-08-11T14:34:16.265Z,53.62
2022-08-11T14:35:14.098Z,53.19
2022-08-11T14:36:12.355Z,53.19
2022-08-11T14:37:12.774Z,52.63
2022-08-11T14:38:10.474Z,53.57
2022-08-11T14:39:12.840Z,54.28
2022-08-11T14:40:31.822Z,54.09
2022-08-11T14:42:11.229Z,54.56
2022-08-11T14:44:10.441Z,55.55
2022-08-11T14:45:03.697Z,55.54
2022-08-11T14:46:26.948Z,55.65
2022-08-11T14:47:27.552Z,55.69
2022-08-11T14:48:26.643Z,55.73
2022-08-11T14:49:24.508Z,56.05
2022-08-11T14:50:24.938Z,55.84
2022-08-11T14:51:24.002Z,56.39
2022-08-11T14:52:21.191Z,56.11
2022-08-11T14:53:22.463Z,55.64
2022-08-11T14:54:38.348Z,55.00
2022-08-11T14:56:02.183Z,54.14
2022-08-11T14:57:00.661Z,53.59
2022-08-11T14:57:59.481Z,53.33
2022-08-11T14:58:56.715Z,54.11
2022-08-11T14:59:57.449Z,53.52
2022-08-11T15:00:59.031Z,53.74
2022-08-11T15:02:15.448Z,53.94
2022-08-11T15:03:16.054Z,53.74
2022-08-11T15:04:34.836Z,53.99
2022-08-11T15:05:31.906Z,53.73
2022-08-11T15:06:29.488Z,54.22
2022-08-11T15:07:29.997Z,54.76
2022-08-11T15:08:49.247Z,55.11
2022-08-11T15:10:11.753Z,54.29
2022-08-11T15:11:24.021Z,54.69
2022-08-11T15:12:31.218Z,53.61
2022-08-11T15:13:33.219Z,54.34
2022-08-11T15:14:49.372Z,54.58
2022-08-11T15:16:11.345Z,55.42
2022-08-11T15:17:10.199Z,55.26
2022-08-11T15:18:13.013Z,55.45
2022-08-11T15:19:10.898Z,55.16
2022-08-11T15:20:35.346Z,55.39
2022-08-11T15:21:50.748Z,55.37
2022-08-11T15:23:06.842Z,55.90
2022-08-11T15:24:19.388Z,55.35
2022-08-11T15:25:16.594Z,54.94
2022-08-11T15:26:45.611Z,55.55
2022-08-11T15:28:07.408Z,54.61
2022-08-11T15:29:23.631Z,54.54
2022-08-11T15:30:40.836Z,54.56
2022-08-11T15:31:44.292Z,53.90
2022-08-11T15:33:08.166Z,53.93
2022-08-11T15:34:27.442Z,53.67
2022-08-11T15:35:45.635Z,53.29
2022-08-11T15:37:05.804Z,54.00
2022-08-11T15:38:06.861Z,54.02
2022-08-11T15:39:20.914Z,53.50